Time;durP1;ratioP1;P1;durP2;ratioP2;P2;SDS_P1;SDS_P2;PMS_P1;PMS_P2;Temp;Humidity;BMP_temperature;BMP_pressure;BME280_temperature;BME280_humidity;BME280_pressure;Samples;Min_cycle;Max_cycle;Signal;HPM_P1;HPM_P2
2021/09/29 00:03:44;;;;;;;4.43;2.40;;;;;;;;;;21163348;28;20457;-51
2021/09/29 00:13:46;;;;;;;5.05;2.30;;;;;;;;;;21162636;28;20123;-51
2021/09/29 00:23:48;;;;;;;4.15;2.30;;;;;;;;;;21167905;28;20142;-50
2021/09/29 00:33:58;;;;;;;3.85;2.50;;;;;;;;;;21178913;28;20051;-51
2021/09/29 00:44:01;;;;;;;3.30;2.17;;;;;;;;;;21177822;28;20047;-51
2021/09/29 00:54:05;;;;;;;4.45;1.60;;;;;;;;;;21177988;28;20468;-51
2021/09/29 01:04:07;;;;;;;2.33;1.60;;;;;;;;;;21177025;28;20616;-51
2021/09/29 01:14:12;;;;;;;3.03;1.70;;;;;;;;;;21176192;28;20043;-52
2021/09/29 01:24:19;;;;;;;2.55;1.52;;;;;;;;;;21176252;28;20398;-50
2021/09/29 01:34:23;;;;;;;4.85;1.58;;;;;;;;;;21174125;28;20104;-50
2021/09/29 01:44:30;;;;;;;3.67;2.05;;;;;;;;;;21173272;28;20535;-53
2021/09/29 01:54:36;;;;;;;14.55;8.52;;;;;;;;;;21172905;28;20044;-51
2021/09/29 02:04:45;;;;;;;3.40;2.00;;;;;;;;;;21172305;28;20055;-51
2021/09/29 02:14:52;;;;;;;3.83;2.05;;;;;;;;;;21173217;28;20392;-50
2021/09/29 02:24:55;;;;;;;3.67;1.87;;;;;;;;;;21171252;28;20062;-53
2021/09/29 02:34:58;;;;;;;3.45;1.58;;;;;;;;;;21170386;28;20469;-52
2021/09/29 02:45:02;;;;;;;3.40;2.40;;;;;;;;;;21167253;28;20117;-55
2021/09/29 02:55:05;;;;;;;3.83;2.20;;;;;;;;;;21167333;28;20050;-50
2021/09/29 03:05:09;;;;;;;;;;;;;;;;;;21166602;28;20165;-54
2021/09/29 03:15:14;;;;;;;2.25;1.70;;;;;;;;;;21165688;28;19920;-57
2021/09/29 03:25:17;;;;;;;3.35;2.15;;;;;;;;;;21165138;28;20505;-52
2021/09/29 03:35:20;;;;;;;3.83;2.30;;;;;;;;;;21164917;28;20039;-53
2021/09/29 03:45:24;;;;;;;4.30;2.78;;;;;;;;;;21145832;28;20101;-52
2021/09/29 03:55:27;;;;;;;5.93;5.07;;;;;;;;;;21162640;28;20048;-50
2021/09/29 04:05:30;;;;;;;5.90;2.70;;;;;;;;;;21163254;28;20094;-52
2021/09/29 04:15:36;;;;;;;4.57;1.77;;;;;;;;;;21162344;28;20105;-51
2021/09/29 04:25:41;;;;;;;4.03;2.00;;;;;;;;;;21161812;28;20051;-50
2021/09/29 04:35:44;;;;;;;4.15;2.05;;;;;;;;;;21161531;28;20502;-51
2021/09/29 04:45:47;;;;;;;3.40;2.17;;;;;;;;;;21160795;28;20057;-52
2021/09/29 04:55:50;;;;;;;3.95;2.15;;;;;;;;;;21161374;28;20095;-51
2021/09/29 05:05:52;;;;;;;3.30;1.98;;;;;;;;;;21160571;28;20060;-51
2021/09/29 05:15:57;;;;;;;2.97;2.05;;;;;;;;;;21174674;28;20051;-50
2021/09/29 05:25:59;;;;;;;4.15;1.90;;;;;;;;;;21174413;28;20086;-52
2021/09/29 05:36:02;;;;;;;2.75;2.10;;;;;;;;;;21173306;28;20073;-57
2021/09/29 05:46:04;;;;;;;3.47;2.30;;;;;;;;;;21172427;28;20058;-56
2021/09/29 05:56:09;;;;;;;5.10;2.55;;;;;;;;;;21171971;28;20086;-55
2021/09/29 06:06:12;;;;;;;5.82;2.70;;;;;;;;;;21086714;28;20488;-57
2021/09/29 06:16:15;;;;;;;7.82;3.40;;;;;;;;;;21085211;28;20048;-57
2021/09/29 06:26:17;;;;;;;6.15;2.42;;;;;;;;;;21084458;28;20048;-52
2021/09/29 06:36:21;;;;;;;6.73;2.60;;;;;;;;;;21083912;28;20044;-53
2021/09/29 06:46:23;;;;;;;5.63;3.00;;;;;;;;;;21083578;28;20094;-52
2021/09/29 06:56:26;;;;;;;7.75;3.15;;;;;;;;;;21084874;28;20040;-53
2021/09/29 07:06:30;;;;;;;4.07;3.20;;;;;;;;;;21165380;28;20104;-54
2021/09/29 07:16:33;;;;;;;7.18;3.40;;;;;;;;;;21164957;28;20050;-52
2021/09/29 07:26:37;;;;;;;5.65;3.30;;;;;;;;;;21166206;28;20044;-52
2021/09/29 07:36:40;;;;;;;9.18;3.10;;;;;;;;;;21164472;28;20656;-52
2021/09/29 07:46:47;;;;;;;8.25;3.42;;;;;;;;;;21162995;28;20444;-55
2021/09/29 07:56:50;;;;;;;;;;;;;;;;;;21162921;28;20556;-53
2021/09/29 08:06:54;;;;;;;14.20;5.27;;;;;;;;;;21144690;28;19946;-51
2021/09/29 08:16:56;;;;;;;12.48;6.07;;;;;;;;;;21161773;28;20095;-51
2021/09/29 08:27:08;;;;;;;11.07;5.70;;;;;;;;;;21162207;28;20125;-51
2021/09/29 09:18:24;;;;;;;7.38;4.25;;;;;;;;;;20751041;28;20506;-58
2021/09/29 09:28:28;;;;;;;10.07;5.53;;;;;;;;;;20733414;28;20049;-56
2021/09/29 09:38:35;;;;;;;6.85;2.83;;;;;;;;;;20977446;28;20051;-57
2021/09/29 09:48:40;;;;;;;5.72;2.10;;;;;;;;;;21173189;28;20051;-51
2021/09/29 09:58:44;;;;;;;2.70;1.80;;;;;;;;;;21171931;28;20130;-54
2021/09/29 10:08:55;;;;;;;3.45;1.75;;;;;;;;;;21145009;28;20127;-53
2021/09/29 10:29:38;;;;;;;4.00;2.10;;;;;;;;;;21140701;28;20078;-57
2021/09/29 10:51:21;;;;;;;2.85;1.60;;;;;;;;;;21113929;28;20367;-56
2021/09/29 11:31:59;;;;;;;5.07;2.33;;;;;;;;;;21101975;28;20434;-57
2021/09/29 12:13:21;;;;;;;2.77;1.83;;;;;;;;;;21078162;28;20051;-58
2021/09/29 12:23:25;;;;;;;3.72;1.80;;;;;;;;;;21092870;28;20074;-60
2021/09/29 12:44:02;;;;;;;2.85;1.80;;;;;;;;;;21093084;28;20044;-58
2021/09/29 12:54:08;;;;;;;5.43;2.00;;;;;;;;;;21092937;28;20047;-58
2021/09/29 13:04:10;;;;;;;3.97;2.22;;;;;;;;;;21093381;28;20055;-58
2021/09/29 13:14:15;;;;;;;3.30;1.90;;;;;;;;;;21091555;28;20127;-58
2021/09/29 13:44:46;;;;;;;;;;;;;;;;;;21088866;28;20091;-58
2021/09/29 13:54:52;;;;;;;6.97;3.67;;;;;;;;;;21087758;28;19946;-59
2021/09/29 14:28:33;;;;;;;2.50;1.92;;;;;;;;;;21086883;28;20117;-59
2021/09/29 14:36:09;;;;;;;3.67;1.85;;;;;;;;;;21085169;28;20095;-60
2021/09/29 14:46:12;;;;;;;2.47;1.40;;;;;;;;;;21082920;28;20511;-55
2021/09/29 14:56:16;;;;;;;3.97;1.40;;;;;;;;;;21161414;28;20048;-54
2021/09/29 15:06:18;;;;;;;2.67;1.60;;;;;;;;;;21164980;28;20403;-54
2021/09/29 15:16:31;;;;;;;4.72;3.05;;;;;;;;;;21145174;28;20075;-57
2021/09/29 15:47:09;;;;;;;1.95;1.23;;;;;;;;;;21105714;28;20454;-60
2021/09/29 16:38:02;;;;;;;2.17;1.38;;;;;;;;;;21079079;28;20064;-59
2021/09/29 16:48:10;;;;;;;4.18;1.63;;;;;;;;;;21076466;28;20055;-58
2021/09/29 16:58:24;;;;;;;3.58;1.70;;;;;;;;;;21076120;28;20392;-60
2021/09/29 17:08:29;;;;;;;5.07;1.60;;;;;;;;;;21083890;28;20403;-59
2021/09/29 17:18:33;;;;;;;2.75;1.30;;;;;;;;;;21116918;28;20063;-56
2021/09/29 17:28:36;;;;;;;;;;;;;;;;;;21173832;28;20071;-57
2021/09/29 17:58:53;;;;;;;5.80;1.90;;;;;;;;;;21170678;28;20052;-56
2021/09/29 18:08:55;;;;;;;4.60;2.13;;;;;;;;;;21169280;28;20107;-56
2021/09/29 18:18:57;;;;;;;3.08;1.98;;;;;;;;;;21168974;28;20454;-57
2021/09/29 18:29:01;;;;;;;3.73;1.97;;;;;;;;;;21167216;28;20043;-59
2021/09/29 18:39:04;;;;;;;8.75;2.35;;;;;;;;;;21148798;28;20056;-58
2021/09/29 18:49:08;;;;;;;;;;;;;;;;;;21082219;28;20055;-59
2021/09/29 19:09:32;;;;;;;9.10;3.13;;;;;;;;;;21079606;28;20165;-58
2021/09/29 19:19:34;;;;;;;6.07;3.40;;;;;;;;;;21078442;28;20089;-58
2021/09/29 19:29:36;;;;;;;7.25;3.50;;;;;;;;;;21078276;28;20050;-60
2021/09/29 19:39:39;;;;;;;10.63;6.13;;;;;;;;;;21077646;28;20044;-60
2021/09/29 19:49:57;;;;;;;12.70;6.33;;;;;;;;;;21077637;28;20044;-58
2021/09/29 20:10:20;;;;;;;9.07;4.78;;;;;;;;;;20992390;28;20095;-59
2021/09/29 20:20:24;;;;;;;10.20;5.43;;;;;;;;;;20993357;28;20052;-59
2021/09/29 20:30:28;;;;;;;9.85;4.85;;;;;;;;;;20994569;28;20044;-58
2021/09/29 20:50:54;;;;;;;8.55;4.82;;;;;;;;;;21008941;28;20052;-58
2021/09/29 21:00:56;;;;;;;5.10;2.80;;;;;;;;;;21046106;28;20502;-58
2021/09/29 21:11:03;;;;;;;4.05;2.45;;;;;;;;;;21091209;28;20130;-58
2021/09/29 21:21:06;;;;;;;3.25;1.90;;;;;;;;;;21090659;28;20097;-59
2021/09/29 21:31:09;;;;;;;3.93;2.40;;;;;;;;;;21091053;28;20048;-59
2021/09/29 22:32:46;;;;;;;3.90;1.70;;;;;;;;;;21085465;28;20041;-58
2021/09/29 22:54:00;;;;;;;3.30;1.35;;;;;;;;;;21060281;28;20047;-58
2021/09/29 23:34:42;;;;;;;2.92;1.65;;;;;;;;;;21081169;28;20121;-57
2021/09/29 23:44:44;;;;;;;1.40;0.93;;;;;;;;;;21081440;28;20471;-57
2021/09/29 23:54:47;;;;;;;5.07;1.10;;;;;;;;;;21079586;28;20058;-58
